Time;durP1;ratioP1;P1;durP2;ratioP2;P2;SDS_P1;SDS_P2;PMS_P1;PMS_P2;Temp;Humidity;BMP_temperature;BMP_pressure;BME280_temperature;BME280_humidity;BME280_pressure;Samples;Min_cycle;Max_cycle;Signal;HPM_P1;HPM_P2
2023/11/30 00:01:20;;;;;;;6.50;2.70;;;4.70;99.90;;;;;;5027731;28;20247;-76
2023/11/30 00:03:46;;;;;;;6.55;2.90;;;4.70;99.90;;;;;;5027512;28;20030;-76
2023/11/30 00:06:12;;;;;;;4.63;2.42;;;4.70;99.90;;;;;;5027449;28;20037;-76
2023/11/30 00:08:37;;;;;;;5.28;2.58;;;4.70;99.90;;;;;;5044061;28;20025;-76
2023/11/30 00:11:06;;;;;;;5.80;3.15;;;4.60;99.90;;;;;;5044105;28;20036;-75
2023/11/30 00:13:32;;;;;;;5.50;2.80;;;4.60;99.90;;;;;;5011214;28;20025;-76
2023/11/30 00:15:57;;;;;;;5.38;2.70;;;4.70;99.90;;;;;;5044771;28;20033;-76
2023/11/30 00:18:23;;;;;;;6.40;2.67;;;4.70;99.90;;;;;;5044066;28;20044;-77
2023/11/30 00:20:49;;;;;;;7.28;2.55;;;4.80;99.90;;;;;;5044175;28;20054;-77
2023/11/30 00:23:14;;;;;;;4.63;2.42;;;4.80;99.90;;;;;;5044169;28;20096;-76
2023/11/30 00:25:40;;;;;;;3.38;2.30;;;4.80;99.90;;;;;;5047027;28;20026;-75
2023/11/30 00:28:06;;;;;;;5.00;2.40;;;4.80;99.90;;;;;;5049236;28;20046;-75
2023/11/30 00:30:32;;;;;;;4.88;2.58;;;4.70;99.90;;;;;;5047963;28;20081;-75
2023/11/30 00:32:57;;;;;;;4.88;2.33;;;4.70;99.90;;;;;;5048060;28;20029;-75
2023/11/30 00:35:23;;;;;;;11.85;2.83;;;4.70;99.90;;;;;;5048694;28;20040;-75
2023/11/30 00:37:49;;;;;;;6.70;2.90;;;4.70;99.90;;;;;;5047825;28;20025;-75
2023/11/30 00:40:14;;;;;;;6.07;2.90;;;4.80;99.90;;;;;;5047820;28;20333;-76
2023/11/30 00:42:40;;;;;;;6.40;2.50;;;4.80;99.90;;;;;;5047835;28;20037;-75
2023/11/30 00:45:06;;;;;;;7.03;2.92;;;4.80;99.90;;;;;;5048883;28;20032;-75
2023/11/30 00:47:32;;;;;;;7.18;2.70;;;4.80;99.90;;;;;;5031144;28;20033;-76
2023/11/30 00:49:58;;;;;;;3.40;2.22;;;4.70;99.90;;;;;;5047361;28;20124;-76
2023/11/30 00:52:23;;;;;;;5.10;2.58;;;4.50;99.90;;;;;;5048538;28;20092;-76
2023/11/30 00:54:49;;;;;;;5.60;2.28;;;4.30;99.90;;;;;;5047694;28;20179;-76
2023/11/30 00:57:15;;;;;;;4.50;1.98;;;4.30;99.90;;;;;;5048629;28;20037;-76
2023/11/30 00:59:40;;;;;;;4.50;2.38;;;4.30;99.90;;;;;;5030923;28;20183;-76
2023/11/30 01:02:06;;;;;;;6.00;2.28;;;4.20;99.90;;;;;;5048279;28;20101;-76
2023/11/30 01:04:32;;;;;;;9.80;2.63;;;4.20;99.90;;;;;;5030974;28;20203;-76
2023/11/30 01:06:57;;;;;;;3.17;2.22;;;4.00;99.90;;;;;;5047273;28;20151;-75
2023/11/30 01:09:23;;;;;;;4.35;2.22;;;4.10;99.90;;;;;;5047093;28;20029;-75
2023/11/30 01:11:49;;;;;;;4.32;2.08;;;4.00;99.90;;;;;;5030757;28;20033;-75
2023/11/30 01:14:15;;;;;;;4.90;2.17;;;3.90;99.90;;;;;;5030616;28;20207;-75
2023/11/30 01:16:41;;;;;;;6.07;2.80;;;3.90;99.90;;;;;;5047203;28;20032;-75
2023/11/30 01:19:07;;;;;;;6.72;2.47;;;3.80;99.90;;;;;;5047143;28;20037;-75
2023/11/30 01:21:33;;;;;;;8.48;3.00;;;3.80;99.90;;;;;;5014281;28;20210;-75
2023/11/30 01:23:59;;;;;;;4.32;2.25;;;3.80;99.90;;;;;;5030348;28;20047;-76
2023/11/30 01:26:24;;;;;;;4.45;2.38;;;3.80;99.90;;;;;;5046793;28;20034;-76
2023/11/30 01:28:50;;;;;;;4.90;2.50;;;3.80;99.90;;;;;;5030495;28;20026;-76
2023/11/30 01:31:16;;;;;;;6.80;2.47;;;3.80;99.90;;;;;;5030447;28;20101;-75
2023/11/30 01:33:41;;;;;;;5.20;2.53;;;3.90;99.90;;;;;;5047621;28;20036;-75
2023/11/30 01:36:07;;;;;;;4.18;2.20;;;3.90;99.90;;;;;;5046133;28;20029;-75
2023/11/30 01:38:33;;;;;;;4.45;2.10;;;3.90;99.90;;;;;;5046761;28;20095;-75
2023/11/30 01:40:59;;;;;;;5.55;2.40;;;4.00;99.90;;;;;;5046771;28;20080;-75
2023/11/30 01:43:25;;;;;;;6.90;2.28;;;4.00;99.90;;;;;;5046515;28;20029;-75
2023/11/30 01:45:51;;;;;;;6.65;2.60;;;4.00;99.90;;;;;;5013715;28;20096;-75
2023/11/30 01:48:17;;;;;;;4.40;2.55;;;4.00;99.90;;;;;;5047383;28;20038;-75
2023/11/30 01:50:46;;;;;;;8.07;2.70;;;4.00;99.90;;;;;;5046386;28;20357;-75
2023/11/30 01:53:12;;;;;;;5.60;2.58;;;4.00;99.90;;;;;;5013934;28;20036;-76
2023/11/30 01:55:38;;;;;;;6.05;2.70;;;4.00;99.90;;;;;;5047287;28;20022;-75
2023/11/30 01:58:04;;;;;;;6.40;3.17;;;4.00;99.90;;;;;;5046340;28;20060;-75
2023/11/30 02:00:30;;;;;;;4.30;2.50;;;4.00;99.90;;;;;;5013263;28;20033;-76
2023/11/30 02:02:57;;;;;;;5.28;3.15;;;4.00;99.90;;;;;;5029920;28;20044;-76
2023/11/30 02:05:23;;;;;;;4.45;2.60;;;4.00;99.90;;;;;;5029873;28;20044;-75
2023/11/30 02:07:48;;;;;;;5.10;2.63;;;4.00;99.90;;;;;;5046119;28;20179;-75
2023/11/30 02:10:14;;;;;;;7.82;3.05;;;4.00;99.90;;;;;;5029409;28;20087;-75
2023/11/30 02:12:40;;;;;;;5.85;3.05;;;4.00;99.90;;;;;;5046141;28;20037;-75
2023/11/30 02:15:06;;;;;;;5.60;3.03;;;3.90;99.90;;;;;;5045925;28;20071;-75
2023/11/30 02:17:31;;;;;;;5.07;3.03;;;3.90;99.90;;;;;;5029429;28;20037;-75
2023/11/30 02:19:57;;;;;;;5.63;3.33;;;3.90;99.90;;;;;;5029519;28;20332;-75
2023/11/30 02:22:23;;;;;;;7.55;3.25;;;3.90;99.90;;;;;;5045920;28;20032;-75
2023/11/30 02:24:48;;;;;;;5.55;3.13;;;3.90;99.90;;;;;;5046994;28;20037;-75
2023/11/30 02:27:14;;;;;;;5.60;3.70;;;3.80;99.90;;;;;;5046878;28;20037;-75
2023/11/30 02:29:40;;;;;;;7.10;3.95;;;3.80;99.90;;;;;;5045626;28;20286;-75
2023/11/30 02:32:06;;;;;;;7.53;3.80;;;3.80;99.90;;;;;;5045692;28;20080;-75
2023/11/30 02:34:32;;;;;;;7.60;3.80;;;3.80;99.90;;;;;;5045740;28;20044;-75
2023/11/30 02:36:57;;;;;;;6.50;3.58;;;3.70;99.90;;;;;;5045977;28;20025;-75
2023/11/30 02:39:23;;;;;;;7.18;4.00;;;3.70;99.90;;;;;;5045635;28;20188;-75
2023/11/30 02:41:49;;;;;;;9.63;3.60;;;3.60;99.90;;;;;;5045743;28;20041;-75
2023/11/30 02:44:14;;;;;;;6.35;3.83;;;3.50;99.90;;;;;;5045729;28;20275;-75
2023/11/30 02:46:40;;;;;;;7.75;3.25;;;3.40;99.90;;;;;;5029169;28;20187;-76
2023/11/30 02:49:05;;;;;;;5.53;3.42;;;3.40;99.90;;;;;;5044524;28;21351;-76
2023/11/30 02:51:31;;;;;;;5.53;3.78;;;3.30;99.90;;;;;;5046211;28;20032;-76
2023/11/30 02:53:58;;;;;;;6.82;3.80;;;3.30;99.90;;;;;;5028955;28;20061;-76
2023/11/30 02:56:24;;;;;;;5.18;3.55;;;3.20;99.90;;;;;;5045375;28;20373;-76
2023/11/30 02:58:49;;;;;;;7.82;3.90;;;3.20;99.90;;;;;;5045344;28;20021;-76
2023/11/30 03:01:15;;;;;;;7.60;3.80;;;3.10;99.90;;;;;;5045316;28;20076;-76
2023/11/30 03:03:40;;;;;;;8.02;3.80;;;3.00;99.90;;;;;;5045076;28;20025;-77
2023/11/30 03:06:11;;;;;;;8.85;3.33;;;3.00;99.90;;;;;;5046066;28;20067;-77
2023/11/30 03:08:46;;;;;;;6.88;3.65;;;3.00;99.90;;;;;;5165546;27;20347;-50
2023/11/30 03:11:12;;;;;;;7.72;3.67;;;2.90;99.90;;;;;;5147080;27;20023;-50
2023/11/30 03:13:37;;;;;;;8.65;4.00;;;2.90;99.90;;;;;;5164889;27;20029;-50
2023/11/30 03:16:03;;;;;;;9.23;3.58;;;2.80;99.90;;;;;;5129195;27;20023;-47
2023/11/30 03:18:29;;;;;;;7.13;3.40;;;2.80;99.90;;;;;;5164634;27;20038;-47
2023/11/30 03:20:55;;;;;;;6.80;3.78;;;2.70;99.90;;;;;;5164646;27;20022;-47
2023/11/30 03:23:20;;;;;;;7.35;3.45;;;2.70;99.90;;;;;;5164608;27;20027;-48
2023/11/30 03:25:46;;;;;;;6.07;3.38;;;2.70;99.90;;;;;;5164510;27;20026;-47
2023/11/30 03:28:11;;;;;;;6.10;3.20;;;2.70;99.90;;;;;;5164432;27;20280;-46
2023/11/30 03:30:37;;;;;;;5.88;3.67;;;2.60;99.90;;;;;;5180605;27;20215;-50
2023/11/30 03:33:03;;;;;;;6.32;3.22;;;2.60;99.90;;;;;;5146243;27;20134;-47
2023/11/30 03:35:28;;;;;;;5.57;3.50;;;2.60;99.90;;;;;;5164380;27;20064;-46
2023/11/30 03:37:54;;;;;;;8.50;3.58;;;2.60;99.90;;;;;;5164463;27;20049;-47
2023/11/30 03:40:20;;;;;;;6.32;2.97;;;2.60;99.90;;;;;;5164220;27;20042;-46
2023/11/30 03:42:45;;;;;;;4.68;3.05;;;2.70;99.90;;;;;;5164138;27;20045;-49
2023/11/30 03:45:11;;;;;;;7.93;3.10;;;2.70;99.90;;;;;;5164310;27;20023;-50
2023/11/30 03:47:37;;;;;;;6.05;2.88;;;2.80;99.90;;;;;;5145652;27;20043;-49
2023/11/30 03:50:02;;;;;;;6.13;2.63;;;2.80;99.90;;;;;;5164204;27;20026;-46
2023/11/30 03:52:28;;;;;;;5.82;3.17;;;2.80;99.90;;;;;;5163864;27;20027;-50
2023/11/30 03:54:54;;;;;;;7.38;3.28;;;2.80;99.90;;;;;;5164148;27;20094;-49
2023/11/30 03:57:19;;;;;;;4.70;3.10;;;2.90;99.90;;;;;;5163957;27;20181;-51
2023/11/30 03:59:45;;;;;;;5.82;3.50;;;2.90;99.90;;;;;;5164086;27;20042;-49
2023/11/30 04:02:11;;;;;;;5.78;3.30;;;2.90;99.90;;;;;;5164008;27;20034;-49
2023/11/30 04:04:37;;;;;;;6.60;3.30;;;2.90;99.90;;;;;;5163664;27;20015;-50
2023/11/30 04:07:03;;;;;;;6.82;3.22;;;2.90;99.90;;;;;;5163419;27;20047;-50
2023/11/30 04:09:29;;;;;;;6.65;3.58;;;2.90;99.90;;;;;;5163791;27;20037;-48
2023/11/30 04:11:54;;;;;;;5.85;3.45;;;2.90;99.90;;;;;;5163385;27;20034;-48
2023/11/30 04:14:20;;;;;;;6.13;3.22;;;2.90;99.90;;;;;;5163785;27;20060;-50
2023/11/30 04:16:46;;;;;;;6.28;3.33;;;2.90;99.90;;;;;;5163599;27;20069;-50
2023/11/30 04:19:12;;;;;;;8.55;3.17;;;2.90;99.90;;;;;;5154919;27;20030;-50
2023/11/30 04:21:39;;;;;;;7.13;3.50;;;2.90;99.90;;;;;;5149250;27;20035;-48
2023/11/30 04:24:05;;;;;;;5.25;3.22;;;2.90;99.90;;;;;;5149374;27;20027;-48
2023/11/30 04:26:30;;;;;;;6.35;3.63;;;2.80;99.90;;;;;;5148277;27;20243;-49
2023/11/30 04:28:56;;;;;;;7.63;3.78;;;2.80;99.90;;;;;;5149616;27;20092;-50
2023/11/30 04:31:22;;;;;;;6.05;3.70;;;2.80;99.90;;;;;;5149400;27;20031;-50
2023/11/30 04:33:47;;;;;;;7.47;3.75;;;2.80;99.90;;;;;;5149102;27;20022;-49
2023/11/30 04:36:13;;;;;;;5.53;3.78;;;2.80;99.90;;;;;;5149411;27;20176;-49
2023/11/30 04:38:39;;;;;;;6.05;3.50;;;2.70;99.90;;;;;;5149200;27;20030;-47
2023/11/30 04:41:05;;;;;;;6.53;3.88;;;2.70;99.90;;;;;;5149384;27;20189;-47
2023/11/30 04:43:31;;;;;;;7.03;4.22;;;2.70;99.90;;;;;;5149285;27;20019;-47
2023/11/30 04:45:56;;;;;;;8.15;4.40;;;2.70;99.90;;;;;;5149245;27;20035;-47
2023/11/30 04:48:22;;;;;;;7.10;4.07;;;2.70;99.90;;;;;;5148906;27;20030;-47
2023/11/30 04:50:47;;;;;;;9.63;4.07;;;2.70;99.90;;;;;;5148869;27;20061;-50
2023/11/30 04:53:13;;;;;;;6.72;4.10;;;2.60;99.90;;;;;;5148522;27;20027;-49
2023/11/30 04:55:39;;;;;;;8.05;4.15;;;2.60;99.90;;;;;;5148068;27;20226;-50
2023/11/30 04:58:04;;;;;;;7.40;4.10;;;2.60;99.90;;;;;;5147836;27;20060;-50
2023/11/30 05:00:30;;;;;;;8.15;4.47;;;2.60;99.90;;;;;;5148690;27;20035;-50
2023/11/30 05:02:56;;;;;;;10.00;4.55;;;2.60;99.90;;;;;;5148758;27;20023;-48
2023/11/30 05:05:22;;;;;;;10.82;4.68;;;2.60;99.90;;;;;;5148823;27;20031;-50
2023/11/30 05:07:50;;;;;;;9.20;4.72;;;2.60;99.90;;;;;;5148105;27;20035;-50
2023/11/30 05:10:16;;;;;;;7.95;4.60;;;2.60;99.90;;;;;;5148203;27;20096;-50
2023/11/30 05:12:41;;;;;;;9.43;4.82;;;2.60;99.90;;;;;;5148423;27;20027;-49
2023/11/30 05:15:07;;;;;;;11.30;4.82;;;2.60;99.90;;;;;;5148705;27;20035;-49
2023/11/30 05:17:33;;;;;;;7.35;4.28;;;2.60;99.90;;;;;;5147557;27;20061;-50
2023/11/30 05:19:59;;;;;;;11.77;4.97;;;2.60;99.90;;;;;;5147893;27;20023;-49
2023/11/30 05:22:24;;;;;;;8.13;4.63;;;2.60;99.90;;;;;;5148014;27;20058;-51
2023/11/30 05:24:50;;;;;;;9.57;4.95;;;2.60;99.90;;;;;;5147094;27;20051;-50
2023/11/30 05:27:16;;;;;;;11.05;5.05;;;2.60;99.90;;;;;;5148372;27;20027;-49
2023/11/30 05:29:42;;;;;;;9.00;4.88;;;2.50;99.90;;;;;;5147560;27;20176;-50
2023/11/30 05:32:08;;;;;;;7.97;4.50;;;2.50;99.90;;;;;;5147388;27;20022;-49
2023/11/30 05:34:35;;;;;;;10.85;5.03;;;2.50;99.90;;;;;;5148083;27;20023;-50
2023/11/30 05:37:03;;;;;;;9.40;4.78;;;2.50;99.90;;;;;;5146973;27;20088;-50
2023/11/30 05:39:32;;;;;;;7.68;4.40;;;2.50;99.90;;;;;;5148084;27;20022;-50
2023/11/30 05:42:01;;;;;;;8.00;4.95;;;2.50;99.90;;;;;;5148183;27;20023;-49
2023/11/30 05:44:26;;;;;;;10.80;5.30;;;2.50;99.90;;;;;;5130012;27;20400;-47
2023/11/30 05:46:52;;;;;;;9.95;6.25;;;2.50;99.90;;;;;;5147837;27;20023;-49
2023/11/30 05:49:18;;;;;;;16.77;5.60;;;2.50;99.90;;;;;;5146776;27;20042;-48
2023/11/30 05:51:43;;;;;;;9.52;5.47;;;2.50;99.90;;;;;;5147772;27;20030;-47
2023/11/30 05:54:10;;;;;;;7.90;4.22;;;2.50;99.90;;;;;;5147253;27;20035;-47
2023/11/30 05:56:36;;;;;;;11.25;5.00;;;2.50;99.90;;;;;;5146907;27;20053;-46
2023/11/30 05:59:02;;;;;;;10.43;5.13;;;2.50;99.90;;;;;;5147743;27;20031;-47
2023/11/30 06:01:28;;;;;;;9.80;5.20;;;2.50;99.90;;;;;;5147640;27;20176;-47
2023/11/30 06:03:54;;;;;;;8.95;5.05;;;2.60;99.90;;;;;;5147788;27;20047;-47
2023/11/30 06:06:20;;;;;;;11.70;5.30;;;2.70;99.90;;;;;;5147198;27;20023;-48
2023/11/30 06:08:47;;;;;;;9.27;4.57;;;2.70;99.90;;;;;;5146435;27;20030;-47
2023/11/30 06:11:14;;;;;;;6.53;3.95;;;2.80;99.90;;;;;;5147589;27;20050;-48
2023/11/30 06:13:40;;;;;;;9.05;4.15;;;2.90;99.90;;;;;;5147042;27;20166;-47
2023/11/30 06:16:06;;;;;;;6.90;4.28;;;2.90;99.90;;;;;;5147134;27;20083;-47
2023/11/30 06:18:32;;;;;;;9.00;4.03;;;2.90;99.90;;;;;;5147197;27;20098;-46
2023/11/30 06:20:57;;;;;;;6.45;3.92;;;2.90;99.90;;;;;;5147453;27;20080;-47
2023/11/30 06:23:23;;;;;;;6.53;3.50;;;2.90;99.90;;;;;;5147191;27;20027;-50
2023/11/30 06:25:49;;;;;;;6.95;4.00;;;2.90;99.90;;;;;;5146971;27;20038;-50
2023/11/30 06:28:16;;;;;;;7.35;3.55;;;2.90;99.90;;;;;;5146571;27;20031;-49
2023/11/30 06:30:42;;;;;;;5.75;3.05;;;3.00;99.90;;;;;;5146717;27;20020;-49
2023/11/30 06:33:08;;;;;;;5.53;3.60;;;3.00;99.90;;;;;;5147142;27;20019;-47
2023/11/30 06:35:33;;;;;;;4.35;2.72;;;3.10;99.90;;;;;;5147035;27;20142;-50
2023/11/30 06:37:59;;;;;;;6.97;3.08;;;3.10;99.90;;;;;;5146718;27;20016;-49
2023/11/30 06:40:24;;;;;;;4.05;2.50;;;3.20;99.90;;;;;;5146840;27;20080;-50
2023/11/30 06:42:50;;;;;;;4.95;2.55;;;3.20;99.90;;;;;;5146460;27;20080;-50
2023/11/30 06:45:16;;;;;;;4.78;2.80;;;3.30;99.90;;;;;;5146886;27;20046;-48
2023/11/30 06:47:41;;;;;;;5.28;2.63;;;3.30;99.90;;;;;;5146463;27;20027;-50
2023/11/30 06:50:08;;;;;;;6.03;2.67;;;3.30;99.90;;;;;;5146791;27;20111;-49
2023/11/30 06:52:33;;;;;;;3.90;2.10;;;3.30;99.90;;;;;;5146609;27;20325;-49
2023/11/30 06:54:59;;;;;;;4.85;2.20;;;3.40;99.90;;;;;;5146783;27;20022;-47
2023/11/30 06:57:25;;;;;;;4.95;2.28;;;3.40;99.90;;;;;;5145426;27;20117;-48
2023/11/30 06:59:51;;;;;;;4.68;1.85;;;3.40;99.90;;;;;;5146612;27;20035;-48
2023/11/30 07:02:16;;;;;;;4.78;1.85;;;3.50;99.90;;;;;;5146248;27;20076;-46
2023/11/30 07:04:42;;;;;;;3.40;1.73;;;3.50;99.90;;;;;;5146655;27;20070;-50
2023/11/30 07:07:07;;;;;;;6.97;2.17;;;3.50;99.90;;;;;;5146188;28;20049;-46
2023/11/30 07:09:33;;;;;;;4.38;1.50;;;3.60;99.90;;;;;;5145661;28;20111;-46
2023/11/30 07:11:59;;;;;;;2.20;1.40;;;3.50;99.90;;;;;;5146640;28;20023;-47
2023/11/30 07:14:24;;;;;;;4.82;1.90;;;3.60;99.90;;;;;;5146364;28;20026;-48
2023/11/30 07:16:50;;;;;;;1.88;1.48;;;3.60;99.90;;;;;;5146083;28;20299;-48
2023/11/30 07:19:16;;;;;;;3.60;1.77;;;3.60;99.90;;;;;;5146449;28;20080;-50
2023/11/30 07:21:41;;;;;;;8.38;1.85;;;3.60;99.90;;;;;;5146204;28;20022;-48
2023/11/30 07:24:08;;;;;;;4.45;1.60;;;3.60;99.90;;;;;;5145757;28;20023;-47
2023/11/30 07:26:33;;;;;;;4.38;1.73;;;3.60;99.90;;;;;;5146270;28;20034;-50
2023/11/30 07:28:59;;;;;;;6.28;1.85;;;3.60;99.90;;;;;;5146869;28;20208;-49
2023/11/30 07:31:25;;;;;;;3.10;1.50;;;3.70;99.90;;;;;;5146839;28;20019;-49
2023/11/30 07:33:50;;;;;;;1.75;1.30;;;3.70;99.90;;;;;;5146064;28;20028;-50
2023/11/30 07:36:16;;;;;;;3.50;1.85;;;3.70;99.90;;;;;;5146312;28;20184;-50
2023/11/30 07:38:42;;;;;;;3.42;1.70;;;3.70;99.90;;;;;;5145104;28;20036;-49
2023/11/30 07:41:07;;;;;;;5.68;1.65;;;3.70;99.90;;;;;;5145180;28;20049;-55
2023/11/30 07:43:33;;;;;;;3.22;1.77;;;3.70;99.90;;;;;;5145129;28;20080;-50
2023/11/30 07:45:59;;;;;;;3.00;1.75;;;3.60;99.90;;;;;;5146165;28;20328;-48
2023/11/30 07:48:25;;;;;;;3.90;1.80;;;3.60;99.90;;;;;;5144756;28;20132;-49
2023/11/30 07:50:51;;;;;;;5.25;1.98;;;3.60;99.90;;;;;;5145989;28;20280;-50
2023/11/30 07:53:18;;;;;;;3.85;1.90;;;3.60;99.90;;;;;;5146151;27;20169;-47
2023/11/30 07:55:44;;;;;;;3.50;1.63;;;3.60;99.90;;;;;;5149656;27;20027;-48
2023/11/30 07:58:10;;;;;;;5.55;1.90;;;3.60;99.90;;;;;;5148593;27;20170;-49
2023/11/30 08:00:36;;;;;;;4.32;1.80;;;3.60;99.90;;;;;;5149810;27;20086;-47
2023/11/30 08:03:02;;;;;;;7.00;1.77;;;3.50;99.90;;;;;;5149604;27;20038;-45
2023/11/30 08:05:27;;;;;;;2.50;1.30;;;3.50;99.90;;;;;;5148452;27;20024;-46
2023/11/30 08:07:53;;;;;;;3.33;1.40;;;3.50;99.90;;;;;;5148291;27;20042;-45
2023/11/30 08:10:19;;;;;;;6.10;1.90;;;3.40;99.90;;;;;;5149350;27;20023;-46
2023/11/30 08:12:45;;;;;;;4.55;1.33;;;3.40;99.90;;;;;;5148400;27;20304;-47
2023/11/30 08:15:11;;;;;;;3.90;1.33;;;3.30;99.90;;;;;;5149699;27;20031;-46
2023/11/30 08:17:36;;;;;;;6.20;1.67;;;3.30;99.90;;;;;;5149423;27;20023;-45
2023/11/30 08:20:02;;;;;;;4.22;1.38;;;3.30;99.90;;;;;;5149244;27;20090;-47
2023/11/30 08:22:28;;;;;;;5.40;2.03;;;3.30;99.90;;;;;;5148367;27;20031;-50
2023/11/30 08:24:54;;;;;;;4.63;1.70;;;3.30;99.90;;;;;;5149500;27;20038;-50
2023/11/30 08:27:23;;;;;;;2.45;1.50;;;3.30;99.90;;;;;;5149089;27;20028;-46
2023/11/30 08:29:49;;;;;;;7.88;1.73;;;3.30;99.90;;;;;;5149207;27;20084;-48
2023/11/30 08:32:16;;;;;;;3.80;2.08;;;3.40;99.90;;;;;;5148995;27;20099;-48
2023/11/30 08:34:41;;;;;;;2.25;1.40;;;3.50;99.90;;;;;;5147919;27;20047;-48
2023/11/30 08:37:07;;;;;;;4.05;1.75;;;3.50;99.90;;;;;;5148574;27;20140;-47
2023/11/30 08:39:32;;;;;;;3.42;1.60;;;3.50;99.90;;;;;;5149015;27;20099;-48
2023/11/30 08:41:58;;;;;;;4.50;1.65;;;3.50;99.90;;;;;;5147717;27;20030;-48
2023/11/30 08:44:24;;;;;;;5.43;1.98;;;3.60;99.90;;;;;;5148563;27;20041;-48
2023/11/30 08:46:50;;;;;;;6.10;1.80;;;3.70;99.90;;;;;;5148751;27;20037;-48
2023/11/30 08:49:16;;;;;;;3.08;1.73;;;3.80;99.90;;;;;;5148506;27;20028;-50
2023/11/30 08:51:43;;;;;;;4.57;1.60;;;3.80;99.90;;;;;;5148244;27;20306;-48
2023/11/30 08:54:08;;;;;;;7.82;1.90;;;4.00;99.90;;;;;;5148590;27;20095;-49
2023/11/30 08:56:34;;;;;;;5.03;1.80;;;4.10;99.90;;;;;;5147287;27;20038;-47
2023/11/30 08:59:00;;;;;;;3.70;1.65;;;4.10;99.90;;;;;;5148868;27;20168;-48
2023/11/30 09:01:25;;;;;;;3.70;1.90;;;4.10;99.90;;;;;;5148287;27;20267;-46
2023/11/30 09:03:59;;;;;;;5.03;1.80;;;4.10;99.90;;;;;;5146918;27;20019;-49
2023/11/30 09:06:25;;;;;;;4.43;1.50;;;4.10;99.90;;;;;;5146922;27;20024;-48
2023/11/30 09:08:51;;;;;;;3.28;1.50;;;4.10;99.90;;;;;;5147594;27;20189;-46
2023/11/30 09:11:17;;;;;;;2.13;1.35;;;4.10;99.90;;;;;;5148126;27;20051;-47
2023/11/30 09:13:42;;;;;;;3.00;1.33;;;4.40;99.90;;;;;;5147244;27;20166;-47
2023/11/30 09:16:10;;;;;;;3.42;1.40;;;5.60;99.90;;;;;;5147699;27;20181;-46
2023/11/30 09:18:35;;;;;;;2.35;1.15;;;6.20;99.90;;;;;;5148026;27;20269;-48
2023/11/30 09:21:01;;;;;;;2.00;1.25;;;6.80;99.90;;;;;;5147412;27;20027;-47
2023/11/30 09:23:29;;;;;;;2.60;1.30;;;6.30;99.90;;;;;;5148145;27;20307;-45
2023/11/30 09:25:55;;;;;;;2.72;1.27;;;6.50;99.90;;;;;;5148028;27;20031;-46
2023/11/30 09:28:21;;;;;;;1.20;1.10;;;7.00;99.90;;;;;;5147898;27;20304;-47
2023/11/30 09:30:46;;;;;;;1.77;1.02;;;7.50;99.90;;;;;;5148105;27;20064;-48
2023/11/30 09:33:13;;;;;;;5.10;1.40;;;7.70;99.90;;;;;;5147980;27;20023;-48
2023/11/30 09:35:39;;;;;;;4.63;1.60;;;8.20;99.90;;;;;;5146853;27;20050;-48
2023/11/30 09:38:04;;;;;;;2.60;1.23;;;8.40;99.90;;;;;;5147789;27;20044;-46
2023/11/30 09:40:30;;;;;;;1.83;1.23;;;7.80;99.90;;;;;;5147503;27;20042;-49
2023/11/30 09:42:56;;;;;;;4.30;1.35;;;6.90;99.90;;;;;;5147378;27;20023;-48
2023/11/30 09:45:23;;;;;;;2.30;1.27;;;6.40;99.90;;;;;;5147651;27;20273;-46
2023/11/30 09:47:49;;;;;;;5.13;1.83;;;6.10;99.90;;;;;;5147461;27;20042;-47
2023/11/30 09:50:15;;;;;;;3.13;1.67;;;6.00;99.90;;;;;;5147569;27;20260;-46
2023/11/30 09:52:41;;;;;;;2.33;1.30;;;5.90;99.90;;;;;;5147438;27;20034;-47
2023/11/30 09:55:10;;;;;;;2.00;1.17;;;5.70;99.90;;;;;;5146469;27;20031;-47
2023/11/30 09:57:36;;;;;;;2.55;1.30;;;5.50;99.90;;;;;;5146538;27;20042;-47
2023/11/30 10:00:05;;;;;;;3.85;1.20;;;5.50;99.90;;;;;;5146103;27;20034;-47
2023/11/30 10:02:30;;;;;;;4.10;2.00;;;5.50;99.90;;;;;;5145996;27;20114;-48
2023/11/30 10:04:59;;;;;;;3.22;1.05;;;5.50;99.90;;;;;;5147281;27;20038;-48
2023/11/30 10:07:24;;;;;;;2.67;1.42;;;5.40;99.90;;;;;;5145829;27;20039;-48
2023/11/30 10:09:50;;;;;;;3.65;1.50;;;5.20;99.90;;;;;;5145873;27;20038;-45
2023/11/30 10:12:19;;;;;;;2.88;1.20;;;5.10;99.90;;;;;;5146661;27;20022;-46
2023/11/30 10:14:45;;;;;;;2.90;1.23;;;5.20;99.90;;;;;;5129183;27;20027;-45
2023/11/30 10:17:11;;;;;;;2.75;1.15;;;5.30;99.90;;;;;;5145813;27;20557;-45
2023/11/30 10:19:38;;;;;;;4.10;1.38;;;5.40;99.90;;;;;;5145463;27;20034;-45
2023/11/30 10:22:03;;;;;;;4.03;1.40;;;5.60;99.90;;;;;;5146654;27;20042;-47
2023/11/30 10:24:29;;;;;;;2.20;1.00;;;5.60;99.90;;;;;;5145808;27;20031;-46
2023/11/30 10:26:58;;;;;;;1.88;1.30;;;5.40;99.90;;;;;;5146548;27;20050;-46
2023/11/30 10:29:23;;;;;;;3.78;1.13;;;5.30;99.90;;;;;;5145395;27;20095;-45
2023/11/30 10:31:49;;;;;;;3.08;1.30;;;5.30;99.90;;;;;;5145421;27;20027;-46
2023/11/30 10:34:16;;;;;;;5.78;1.55;;;5.50;99.90;;;;;;5145758;27;20039;-49
2023/11/30 10:36:42;;;;;;;2.20;1.25;;;5.60;99.90;;;;;;5145703;27;20038;-49
2023/11/30 10:39:22;;;;;;;3.30;1.48;;;5.60;99.90;;;;;;5146615;27;20019;-49
2023/11/30 10:41:54;;;;;;;3.55;1.23;;;5.70;99.90;;;;;;5146501;27;20023;-49
2023/11/30 10:44:27;;;;;;;4.25;1.33;;;5.70;99.90;;;;;;5145984;27;20027;-49
2023/11/30 10:47:03;;;;;;;4.55;1.30;;;5.80;99.90;;;;;;5145879;27;20027;-49
2023/11/30 10:49:29;;;;;;;4.70;1.50;;;5.70;99.90;;;;;;5146423;27;20019;-49
2023/11/30 10:51:58;;;;;;;3.40;1.00;;;5.70;99.90;;;;;;5146399;27;20259;-49
2023/11/30 10:54:30;;;;;;;2.88;1.23;;;5.50;99.90;;;;;;5127823;27;20046;-49
2023/11/30 10:56:56;;;;;;;2.65;1.27;;;5.50;99.90;;;;;;5145165;27;20181;-46
2023/11/30 10:59:24;;;;;;;4.10;1.60;;;5.50;99.90;;;;;;5144984;27;20090;-49
2023/11/30 11:01:50;;;;;;;1.80;1.08;;;5.60;99.90;;;;;;5146193;27;20027;-46
2023/11/30 11:04:15;;;;;;;2.10;1.05;;;5.60;99.90;;;;;;5145118;27;20202;-49
2023/11/30 11:06:41;;;;;;;3.70;1.20;;;5.50;99.90;;;;;;5145655;28;20087;-47
2023/11/30 11:09:08;;;;;;;2.97;1.50;;;5.40;99.90;;;;;;5146410;28;20027;-45
2023/11/30 11:11:37;;;;;;;3.92;1.13;;;5.70;99.90;;;;;;5146225;27;20023;-46
2023/11/30 11:14:03;;;;;;;2.05;1.23;;;5.70;99.90;;;;;;5128435;28;20023;-48
2023/11/30 11:16:41;;;;;;;4.75;1.40;;;5.80;99.90;;;;;;5146092;28;20094;-45
2023/11/30 11:19:07;;;;;;;3.47;1.50;;;5.60;99.90;;;;;;5146106;28;20298;-46
2023/11/30 11:21:37;;;;;;;5.88;1.42;;;5.70;99.90;;;;;;5146061;28;20039;-46
2023/11/30 11:24:06;;;;;;;2.97;1.20;;;5.70;99.90;;;;;;5144753;28;20034;-48
2023/11/30 11:26:45;;;;;;;4.13;1.83;;;5.80;99.90;;;;;;5144845;28;20029;-46
2023/11/30 11:29:13;;;;;;;1.45;1.25;;;5.70;99.90;;;;;;5147717;27;20050;-46
2023/11/30 11:31:38;;;;;;;2.53;1.02;;;5.70;99.90;;;;;;5149849;27;20023;-48
2023/11/30 11:34:06;;;;;;;4.65;1.40;;;5.70;99.90;;;;;;5149586;27;20078;-47
2023/11/30 11:36:37;;;;;;;1.00;0.90;;;5.70;99.90;;;;;;5148740;27;20080;-45
2023/11/30 11:39:04;;;;;;;4.45;1.50;;;5.60;99.90;;;;;;5150094;27;20257;-47
2023/11/30 11:41:30;;;;;;;4.93;1.30;;;5.50;99.90;;;;;;5150039;27;20038;-48
2023/11/30 11:43:55;;;;;;;2.78;1.10;;;7.00;99.90;;;;;;5131766;27;20023;-49
2023/11/30 11:46:21;;;;;;;3.55;2.05;;;7.60;99.90;;;;;;5148565;27;20023;-48
2023/11/30 11:48:47;;;;;;;4.03;1.40;;;8.00;99.90;;;;;;5149458;27;20058;-51
2023/11/30 11:51:13;;;;;;;2.80;1.52;;;7.20;99.90;;;;;;5149595;27;20015;-51
2023/11/30 11:53:40;;;;;;;5.22;1.92;;;7.50;99.90;;;;;;5148545;27;20090;-51
2023/11/30 11:56:07;;;;;;;2.45;1.42;;;7.70;99.90;;;;;;5149576;27;20023;-51
2023/11/30 11:58:35;;;;;;;0.98;0.80;;;8.50;99.90;;;;;;5148565;27;20076;-50
2023/11/30 12:01:00;;;;;;;1.20;0.93;;;7.40;99.90;;;;;;5149645;27;20146;-49
2023/11/30 12:03:26;;;;;;;3.40;1.30;;;6.30;99.90;;;;;;5148499;27;20039;-49
2023/11/30 12:05:52;;;;;;;7.35;1.42;;;7.30;99.90;;;;;;5148967;27;20300;-49
2023/11/30 12:08:29;;;;;;;3.38;1.20;;;7.00;99.90;;;;;;5148869;27;20357;-47
2023/11/30 12:10:55;;;;;;;5.18;2.13;;;8.40;99.90;;;;;;5149441;27;20337;-51
2023/11/30 12:13:22;;;;;;;2.63;1.33;;;9.80;95.30;;;;;;5149293;27;20045;-50
2023/11/30 12:15:48;;;;;;;4.60;1.50;;;10.10;88.70;;;;;;5149025;27;20139;-52
2023/11/30 12:18:13;;;;;;;3.13;1.35;;;10.90;62.00;;;;;;5149261;27;20030;-47
2023/11/30 12:20:39;;;;;;;4.75;1.73;;;10.50;64.20;;;;;;5148006;27;20039;-48
2023/11/30 12:23:05;;;;;;;3.65;1.30;;;10.60;62.50;;;;;;5148127;27;20292;-48
2023/11/30 12:25:30;;;;;;;6.05;1.92;;;11.50;47.50;;;;;;5131068;27;20031;-47
2023/11/30 12:27:56;;;;;;;1.95;1.23;;;11.10;46.50;;;;;;5148841;27;20034;-50
2023/11/30 12:30:23;;;;;;;3.70;1.30;;;11.00;46.70;;;;;;5147578;27;20022;-50
2023/11/30 12:32:48;;;;;;;1.75;1.27;;;10.30;46.00;;;;;;5148739;27;20319;-51
2023/11/30 12:35:15;;;;;;;6.38;2.05;;;9.90;56.90;;;;;;5147847;27;20019;-53
2023/11/30 12:37:40;;;;;;;2.47;1.10;;;9.70;65.00;;;;;;5148486;27;20030;-50
2023/11/30 12:40:09;;;;;;;3.10;1.35;;;8.70;73.00;;;;;;5147988;27;20221;-50
2023/11/30 12:42:35;;;;;;;3.10;1.50;;;8.10;84.30;;;;;;5148004;27;20093;-50
2023/11/30 12:45:03;;;;;;;5.72;1.65;;;7.60;94.40;;;;;;5148792;27;20049;-50
2023/11/30 12:47:29;;;;;;;4.15;1.40;;;7.20;98.40;;;;;;5148897;27;20029;-50
2023/11/30 12:49:55;;;;;;;2.90;1.35;;;7.10;98.20;;;;;;5148345;27;20034;-50